Time,TemperatureF,DewpointF,PressureIn,WindDirection,WindDirectionDegrees,WindSpeedMPH,WindSpeedGustMPH,Humidity,HourlyPrecipIn,Conditions,Clouds,dailyrainin,SoftwareType,DateUTC
2013-08-11 00:58:00,77.3,74.0,30.06,South,169,1.0,1.0,90,0.00,,,0.00,weatherlink.com 1.10,2013-08-11 05:58:00,
2013-08-11 01:13:00,77.2,75.0,30.06,SE,141,1.0,2.0,91,0.00,,,0.00,weatherlink.com 1.10,2013-08-11 06:13:00,
2013-08-11 01:28:00,76.9,74.0,30.06,SE,143,0.0,1.0,91,0.00,,,0.00,weatherlink.com 1.10,2013-08-11 06:28:00,
2013-08-11 01:43:00,76.9,75.0,30.05,SE,143,0.0,1.0,92,0.00,,,0.00,weatherlink.com 1.10,2013-08-11 06:43:00,
2013-08-11 01:58:00,76.7,74.0,30.05,SE,143,0.0,0.0,92,0.00,,,0.00,weatherlink.com 1.10,2013-08-11 06:58:00,
2013-08-11 02:13:00,76.5,74.0,30.05,SE,143,0.0,1.0,92,0.00,,,0.00,weatherlink.com 1.10,2013-08-11 07:13:00,
2013-08-11 02:28:00,76.3,74.0,30.06,SSE,150,0.0,1.0,93,0.00,,,0.00,weatherlink.com 1.10,2013-08-11 07:28:00,
2013-08-11 02:43:00,76.2,74.0,30.06,SSE,155,0.0,1.0,93,0.00,,,0.00,weatherlink.com 1.10,2013-08-11 07:43:00,
2013-08-11 02:58:00,75.9,74.0,30.06,SSE,155,0.0,0.0,93,0.00,,,0.00,weatherlink.com 1.10,2013-08-11 07:58:00,
2013-08-11 03:13:00,75.4,73.0,30.06,SSE,155,0.0,0.0,93,0.00,,,0.00,weatherlink.com 1.10,2013-08-11 08:13:00,
2013-08-11 03:28:00,75.1,73.0,30.06,SSE,155,0.0,0.0,94,0.00,,,0.00,weatherlink.com 1.10,2013-08-11 08:28:00,
2013-08-11 04:13:00,74.4,73.0,30.07,SSE,155,0.0,0.0,95,0.00,,,0.00,weatherlink.com 1.10,2013-08-11 09:13:00,
2013-08-11 04:29:00,74.3,73.0,30.08,SSE,155,0.0,0.0,95,0.00,,,0.00,weatherlink.com 1.10,2013-08-11 09:29:00,
2013-08-11 04:59:00,74.1,73.0,30.08,SSE,155,0.0,0.0,95,0.00,,,0.00,weatherlink.com 1.10,2013-08-11 09:59:00,
2013-08-11 05:14:00,74.0,73.0,30.08,SSE,155,0.0,0.0,95,0.00,,,0.00,weatherlink.com 1.10,2013-08-11 10:14:00,
2013-08-11 05:29:00,73.7,72.0,30.08,SSE,155,0.0,1.0,95,0.00,,,0.00,weatherlink.com 1.10,2013-08-11 10:29:00,
2013-08-11 05:44:00,73.5,72.0,30.09,SSE,155,0.0,0.0,96,0.00,,,0.00,weatherlink.com 1.10,2013-08-11 10:44:00,
2013-08-11 05:59:00,73.4,72.0,30.09,SSE,155,0.0,0.0,96,0.00,,,0.00,weatherlink.com 1.10,2013-08-11 10:59:00,
2013-08-11 06:14:00,73.3,72.0,30.09,SSE,155,0.0,0.0,96,0.00,,,0.00,weatherlink.com 1.10,2013-08-11 11:14:00,
2013-08-11 06:29:00,73.2,72.0,30.09,SSE,155,0.0,0.0,96,0.00,,,0.00,weatherlink.com 1.10,2013-08-11 11:29:00,
2013-08-11 06:44:00,73.1,72.0,30.10,SSE,155,0.0,1.0,96,0.00,,,0.00,weatherlink.com 1.10,2013-08-11 11:44:00,
2013-08-11 06:59:00,73.1,72.0,30.11,SSE,155,0.0,1.0,96,0.00,,,0.00,weatherlink.com 1.10,2013-08-11 11:59:00,
2013-08-11 07:14:00,73.0,72.0,30.11,SE,146,0.0,1.0,96,0.00,,,0.00,weatherlink.com 1.10,2013-08-11 12:14:00,
2013-08-11 07:29:00,73.5,73.0,30.11,SE,145,0.0,1.0,97,0.00,,,0.00,weatherlink.com 1.10,2013-08-11 12:29:00,
2013-08-11 07:44:00,74.4,74.0,30.11,SE,145,0.0,0.0,97,0.00,,,0.00,weatherlink.com 1.10,2013-08-11 12:44:00,
2013-08-11 07:59:00,75.3,74.0,30.11,SE,145,0.0,1.0,97,0.00,,,0.00,weatherlink.com 1.10,2013-08-11 12:59:00,
2013-08-11 08:14:00,76.4,75.0,30.12,ENE,75,1.0,1.0,95,0.00,,,0.00,weatherlink.com 1.10,2013-08-11 13:14:00,
2013-08-11 08:29:00,77.7,75.0,30.12,NNE,25,1.0,2.0,92,0.00,,,0.00,weatherlink.com 1.10,2013-08-11 13:29:00,
2013-08-11 08:44:00,78.7,76.0,30.12,ESE,120,0.0,1.0,90,0.00,,,0.00,weatherlink.com 1.10,2013-08-11 13:44:00,
2013-08-11 08:59:00,79.7,76.0,30.12,NNE,29,0.0,2.0,88,0.00,,,0.00,weatherlink.com 1.10,2013-08-11 13:59:00,
2013-08-11 09:14:00,80.6,76.0,30.12,NE,36,0.0,2.0,86,0.00,,,0.00,weatherlink.com 1.10,2013-08-11 14:14:00,
2013-08-11 09:59:00,84.5,75.0,30.12,South,187,2.0,3.0,74,0.00,,,0.00,weatherlink.com 1.10,2013-08-11 14:59:00,
2013-08-11 10:14:00,85.4,76.0,30.12,South,177,1.0,3.0,73,0.00,,,0.00,weatherlink.com 1.10,2013-08-11 15:14:00,
2013-08-11 10:29:00,85.3,76.0,30.12,West,264,1.0,2.0,74,0.00,,,0.00,weatherlink.com 1.10,2013-08-11 15:29:00,
2013-08-11 10:44:00,84.8,76.0,30.12,West,266,1.0,1.0,74,0.00,,,0.00,weatherlink.com 1.10,2013-08-11 15:44:00,
2013-08-11 11:45:00,89.9,75.0,30.11,SSE,148,3.0,3.0,62,0.00,,,0.00,weatherlink.com 1.10,2013-08-11 16:45:00,
2013-08-11 12:00:00,90.6,74.0,30.10,South,176,2.0,4.0,58,0.00,,,0.00,weatherlink.com 1.10,2013-08-11 17:00:00,
2013-08-11 12:15:00,91.1,74.0,30.10,ESE,120,0.0,3.0,57,0.00,,,0.00,weatherlink.com 1.10,2013-08-11 17:15:00,
2013-08-11 12:30:00,90.9,74.0,30.09,SE,138,0.0,2.0,57,0.00,,,0.00,weatherlink.com 1.10,2013-08-11 17:30:00,
2013-08-11 12:45:00,91.7,73.0,30.09,East,79,0.0,4.0,54,0.00,,,0.00,weatherlink.com 1.10,2013-08-11 17:45:00,
2013-08-11 13:00:00,92.6,73.0,30.08,SSE,165,1.0,3.0,53,0.00,,,0.00,weatherlink.com 1.10,2013-08-11 18:00:00,
2013-08-11 13:15:00,93.6,72.0,30.08,NNE,12,0.0,5.0,50,0.00,,,0.00,weatherlink.com 1.10,2013-08-11 18:15:00,
2013-08-11 13:30:00,92.8,73.0,30.08,West,273,2.0,4.0,52,0.00,,,0.00,weatherlink.com 1.10,2013-08-11 18:30:00,
2013-08-11 13:45:00,93.9,73.0,30.08,SSE,148,0.0,6.0,51,0.00,,,0.00,weatherlink.com 1.10,2013-08-11 18:45:00,
2013-08-11 14:45:00,87.1,75.0,30.08,ESE,108,1.0,7.0,67,0.00,,,0.00,weatherlink.com 1.10,2013-08-11 19:45:00,
2013-08-11 15:00:00,87.6,75.0,30.07,SSW,195,4.0,6.0,67,0.00,,,0.00,weatherlink.com 1.10,2013-08-11 20:00:00,
2013-08-11 15:15:00,89.2,75.0,30.08,SE,139,1.0,5.0,64,0.00,,,0.00,weatherlink.com 1.10,2013-08-11 20:15:00,
2013-08-11 15:30:00,89.8,76.0,30.07,SSE,160,2.0,5.0,64,0.00,,,0.00,weatherlink.com 1.10,2013-08-11 20:30:00,
2013-08-11 15:45:00,90.4,75.0,30.07,SSE,156,3.0,6.0,61,0.00,,,0.00,weatherlink.com 1.10,2013-08-11 20:45:00,
2013-08-11 16:00:00,91.0,75.0,30.06,SSE,153,2.0,5.0,60,0.00,,,0.00,weatherlink.com 1.10,2013-08-11 21:00:00,
2013-08-11 16:15:00,91.4,75.0,30.05,SE,135,3.0,6.0,58,0.00,,,0.00,weatherlink.com 1.10,2013-08-11 21:15:00,
2013-08-11 16:30:00,90.2,74.0,30.05,SSE,165,3.0,6.0,59,0.00,,,0.00,weatherlink.com 1.10,2013-08-11 21:30:00,
2013-08-11 16:45:00,90.8,74.0,30.05,South,172,4.0,7.0,59,0.00,,,0.00,weatherlink.com 1.10,2013-08-11 21:45:00,
2013-08-11 17:00:00,90.2,75.0,30.05,South,177,1.0,5.0,61,0.00,,,0.00,weatherlink.com 1.10,2013-08-11 22:00:00,
2013-08-11 17:15:00,90.1,75.0,30.06,SW,226,1.0,5.0,61,0.00,,,0.00,weatherlink.com 1.10,2013-08-11 22:15:00,
2013-08-11 17:30:00,89.7,74.0,30.06,ESE,119,1.0,8.0,61,0.00,,,0.00,weatherlink.com 1.10,2013-08-11 22:30:00,
2013-08-11 17:45:00,87.0,74.0,30.06,SE,139,2.0,3.0,66,0.00,,,0.00,weatherlink.com 1.10,2013-08-11 22:45:00,
2013-08-11 18:00:00,85.6,74.0,30.06,South,176,1.0,3.0,69,0.00,,,0.00,weatherlink.com 1.10,2013-08-11 23:00:00,
2013-08-11 18:15:00,85.9,75.0,30.05,SE,146,2.0,2.0,70,0.00,,,0.00,weatherlink.com 1.10,2013-08-11 23:15:00,
2013-08-11 18:30:00,86.3,76.0,30.06,West,277,2.0,4.0,71,0.00,,,0.00,weatherlink.com 1.10,2013-08-11 23:30:00,
2013-08-11 18:45:00,85.6,76.0,30.06,West,264,1.0,5.0,72,0.00,,,0.00,weatherlink.com 1.10,2013-08-11 23:45:00,
2013-08-11 19:00:00,85.0,75.0,30.06,SSW,211,2.0,2.0,73,0.00,,,0.00,weatherlink.com 1.10,2013-08-12 00:00:00,
2013-08-11 19:15:00,84.1,75.0,30.07,West,275,0.0,2.0,74,0.00,,,0.00,weatherlink.com 1.10,2013-08-12 00:15:00,
2013-08-11 19:30:00,83.3,75.0,30.09,WSW,238,1.0,1.0,77,0.00,,,0.00,weatherlink.com 1.10,2013-08-12 00:30:00,
2013-08-11 19:45:00,83.0,75.0,30.08,South,180,0.0,2.0,77,0.00,,,0.00,weatherlink.com 1.10,2013-08-12 00:45:00,
2013-08-11 20:00:00,82.7,75.0,30.09,South,170,0.0,1.0,78,0.00,,,0.00,weatherlink.com 1.10,2013-08-12 01:00:00,
2013-08-11 20:15:00,82.3,75.0,30.10,South,170,0.0,1.0,79,0.00,,,0.00,weatherlink.com 1.10,2013-08-12 01:15:00,
2013-08-11 20:45:00,81.7,75.0,30.09,South,181,0.0,2.0,79,0.00,,,0.00,weatherlink.com 1.10,2013-08-12 01:45:00,
2013-08-11 21:00:00,81.4,74.0,30.10,SSE,155,0.0,1.0,79,0.00,,,0.00,weatherlink.com 1.10,2013-08-12 02:00:00,
2013-08-11 21:30:00,80.6,74.0,30.10,SSE,148,1.0,1.0,80,0.00,,,0.00,weatherlink.com 1.10,2013-08-12 02:30:00,
2013-08-11 21:45:00,80.2,74.0,30.09,SSE,148,0.0,1.0,81,0.00,,,0.00,weatherlink.com 1.10,2013-08-12 02:45:00,
2013-08-11 22:00:00,79.6,74.0,30.09,SSE,165,1.0,2.0,83,0.00,,,0.00,weatherlink.com 1.10,2013-08-12 03:00:00,
2013-08-11 22:45:00,78.6,75.0,30.08,SE,140,1.0,2.0,87,0.00,,,0.00,weatherlink.com 1.10,2013-08-12 03:45:00,
2013-08-11 23:00:00,78.4,74.0,30.08,South,169,1.0,2.0,87,0.00,,,0.00,weatherlink.com 1.10,2013-08-12 04:00:00,
2013-08-11 23:15:00,78.3,75.0,30.08,SE,142,0.0,2.0,88,0.00,,,0.00,weatherlink.com 1.10,2013-08-12 04:15:00,
2013-08-11 23:30:00,78.3,75.0,30.09,SSE,148,0.0,4.0,88,0.00,,,0.00,weatherlink.com 1.10,2013-08-12 04:30:00,
2013-08-11 23:45:00,77.9,75.0,30.09,SE,128,1.0,2.0,89,0.00,,,0.00,weatherlink.com 1.10,2013-08-12 04:45:00,